Simferopol, Ukraine
Current Conditions -  °F | °C
As of 3:30 PM on Wednesday 26 Nov 2014 (Local Time) from URFF Reporting Station
Haze Haze  
Wind Chill: 18°   Ceiling: 200
Heat Index: 30°   Visibility: 1.7mi
Dew Point: 28°   Wind: 20mph
Humidity: 93%   Direction: 50°NE
Pressure: 30.12"   Gusts: NA
Location:  44.95°N, 34.1°E
Report Text: URFF 261230Z 05009MPS 2800 BR OVC002 M01/M02 Q1020 01290255NOSIG
Loading
Personal Weather Stations






























Interactive Weather Map New forecast layout! Learn more

10-Day Weather Forecast

Advertisements
Track Severe Weather on mobile